createdAt,value
2018-09-13T00:01:23.207Z,5.10
2018-09-13T00:03:51.480Z,5.63
2018-09-13T00:06:19.737Z,5.33
2018-09-13T00:08:48.000Z,5.60
2018-09-13T00:11:16.331Z,5.10
2018-09-13T00:13:44.615Z,5.70
2018-09-13T00:16:12.871Z,5.73
2018-09-13T00:18:41.104Z,5.30
2018-09-13T00:21:09.366Z,5.67
2018-09-13T00:23:37.631Z,5.40
2018-09-13T00:26:05.872Z,5.47
2018-09-13T00:28:34.219Z,5.60
2018-09-13T00:31:02.439Z,5.37
2018-09-13T00:33:30.676Z,5.17
2018-09-13T00:35:58.964Z,6.13
2018-09-13T00:38:27.215Z,6.37
2018-09-13T00:40:55.466Z,6.23
2018-09-13T00:43:23.712Z,6.27
2018-09-13T00:45:51.959Z,6.33
2018-09-13T00:48:20.242Z,6.40
2018-09-13T00:50:48.482Z,5.90
2018-09-13T00:53:16.724Z,6.67
2018-09-13T00:55:44.991Z,6.20
2018-09-13T00:58:13.395Z,6.27
2018-09-13T01:00:41.682Z,5.90
2018-09-13T01:03:14.053Z,6.17
2018-09-13T01:05:44.340Z,6.50
2018-09-13T01:08:12.622Z,7.03
2018-09-13T01:10:40.877Z,9.00
2018-09-13T01:13:09.124Z,8.00
2018-09-13T01:15:37.363Z,7.80
2018-09-13T01:18:05.816Z,8.33
2018-09-13T01:20:34.076Z,7.37
2018-09-13T01:23:02.352Z,7.07
2018-09-13T01:25:30.600Z,6.80
2018-09-13T01:27:58.875Z,6.97
2018-09-13T01:30:27.147Z,6.73
2018-09-13T01:32:55.399Z,7.63
2018-09-13T01:35:23.672Z,7.30
2018-09-13T01:37:51.904Z,7.83
2018-09-13T01:40:20.159Z,7.33
2018-09-13T01:42:48.500Z,7.20
2018-09-13T01:45:16.755Z,7.57
2018-09-13T01:47:45.000Z,7.13
2018-09-13T01:50:13.244Z,8.13
2018-09-13T01:52:41.471Z,7.63
2018-09-13T01:55:09.777Z,7.40
2018-09-13T01:57:38.003Z,7.50
2018-09-13T02:00:06.277Z,7.03
2018-09-13T02:02:34.614Z,7.57
2018-09-13T02:05:02.904Z,7.80
2018-09-13T02:07:31.231Z,7.60
2018-09-13T02:09:59.479Z,6.93
2018-09-13T02:12:27.758Z,8.17
2018-09-13T02:14:56.037Z,7.63
2018-09-13T02:17:24.308Z,7.83
2018-09-13T02:19:52.590Z,8.40
2018-09-13T02:22:20.836Z,7.87
2018-09-13T02:24:49.089Z,8.03
2018-09-13T02:27:17.327Z,8.10
2018-09-13T02:29:45.590Z,8.47
2018-09-13T02:32:13.868Z,8.57
2018-09-13T02:34:42.112Z,7.43
2018-09-13T02:37:10.380Z,7.83
2018-09-13T02:39:38.619Z,7.63
2018-09-13T02:42:06.925Z,8.23
2018-09-13T02:44:35.207Z,7.70
2018-09-13T02:47:03.467Z,8.00
2018-09-13T02:49:31.746Z,8.23
2018-09-13T02:52:00.014Z,8.80
2018-09-13T02:54:28.264Z,8.43
2018-09-13T02:56:56.648Z,8.73
2018-09-13T02:59:26.917Z,8.20
2018-09-13T03:01:55.183Z,8.73
2018-09-13T03:04:23.437Z,8.07
2018-09-13T03:06:51.719Z,7.93
2018-09-13T03:09:19.995Z,8.23
2018-09-13T03:11:48.245Z,8.03
2018-09-13T03:14:16.503Z,8.53
2018-09-13T03:16:44.804Z,8.30
2018-09-13T03:19:13.070Z,9.70
2018-09-13T03:21:41.353Z,8.67
2018-09-13T03:24:09.635Z,9.30
2018-09-13T03:26:37.941Z,9.40
2018-09-13T03:29:06.270Z,8.93
2018-09-13T03:31:34.501Z,10.30
2018-09-13T03:34:02.875Z,10.57
2018-09-13T03:36:31.156Z,11.07
2018-09-13T03:38:59.426Z,11.27
2018-09-13T03:41:30.732Z,10.87
2018-09-13T03:43:58.998Z,11.50
2018-09-13T03:46:27.254Z,11.50
2018-09-13T03:48:55.512Z,11.43
2018-09-13T03:51:23.796Z,10.77
2018-09-13T03:53:52.062Z,11.00
2018-09-13T03:56:20.364Z,10.40
2018-09-13T03:58:48.679Z,10.83
2018-09-13T04:01:21.051Z,10.50
2018-09-13T04:03:49.382Z,11.07
2018-09-13T04:06:17.816Z,10.60
2018-09-13T04:08:46.195Z,10.60
2018-09-13T04:11:14.442Z,11.23
2018-09-13T04:13:42.755Z,11.53
2018-09-13T04:16:11.047Z,10.13
2018-09-13T04:18:39.310Z,10.47
2018-09-13T04:21:07.580Z,10.37
2018-09-13T04:23:35.811Z,10.37
2018-09-13T04:26:04.235Z,10.40
2018-09-13T04:28:32.615Z,10.93
2018-09-13T04:31:00.802Z,9.87
2018-09-13T04:33:29.127Z,10.80
2018-09-13T04:35:57.542Z,10.53
2018-09-13T04:38:25.797Z,9.57
2018-09-13T04:40:54.125Z,10.87
2018-09-13T04:43:22.449Z,10.40
2018-09-13T04:45:51.007Z,10.37
2018-09-13T04:48:21.264Z,10.10
2018-09-13T04:50:49.657Z,9.10
2018-09-13T04:53:17.992Z,9.90
2018-09-13T04:55:46.335Z,10.43
2018-09-13T04:58:16.756Z,10.40
2018-09-13T05:00:45.100Z,10.27
2018-09-13T05:03:13.464Z,9.97
2018-09-13T05:05:41.708Z,9.37
2018-09-13T05:08:09.963Z,10.20
2018-09-13T05:10:44.912Z,9.60
2018-09-13T05:13:13.156Z,9.63
2018-09-13T05:15:41.384Z,9.37
2018-09-13T05:18:09.676Z,10.13
2018-09-13T05:20:37.936Z,8.73
2018-09-13T05:23:06.158Z,9.43
2018-09-13T05:25:34.446Z,9.80
2018-09-13T05:28:02.783Z,8.67
2018-09-13T05:30:31.055Z,8.67
2018-09-13T05:32:59.323Z,8.90
2018-09-13T05:35:27.546Z,8.53
2018-09-13T05:37:55.771Z,8.53
2018-09-13T05:40:23.982Z,8.53
2018-09-13T05:42:52.217Z,9.00
2018-09-13T05:45:20.411Z,9.00
2018-09-13T05:47:48.667Z,8.43
2018-09-13T05:50:16.907Z,8.23
2018-09-13T05:52:45.091Z,7.23
2018-09-13T05:55:13.321Z,8.07
2018-09-13T05:57:41.506Z,7.40
2018-09-13T06:00:09.700Z,7.83
2018-09-13T06:02:37.943Z,7.30
2018-09-13T06:05:06.132Z,7.73
2018-09-13T06:07:34.367Z,8.00
2018-09-13T06:10:02.596Z,8.03
2018-09-13T06:12:30.880Z,7.20
2018-09-13T06:14:59.135Z,7.53
2018-09-13T06:17:27.427Z,8.13
2018-09-13T06:19:55.649Z,6.83
2018-09-13T06:22:24.612Z,7.90
2018-09-13T06:24:52.806Z,8.03
2018-09-13T06:27:21.054Z,8.60
2018-09-13T06:29:49.511Z,8.77
2018-09-13T06:32:17.719Z,10.43
2018-09-13T06:34:45.954Z,9.10
2018-09-13T06:37:14.151Z,9.40
2018-09-13T06:39:42.392Z,9.87
2018-09-13T06:42:10.715Z,10.33
2018-09-13T06:44:39.042Z,9.37
2018-09-13T06:47:07.235Z,9.53
2018-09-13T06:49:35.744Z,8.50
2018-09-13T06:52:03.986Z,8.67
2018-09-13T06:54:32.222Z,8.47
2018-09-13T06:57:00.411Z,8.00
2018-09-13T06:59:28.620Z,8.90
2018-09-13T07:01:56.820Z,7.77
2018-09-13T07:04:25.080Z,8.60
2018-09-13T07:06:53.291Z,8.20
2018-09-13T07:09:21.520Z,7.30
2018-09-13T07:11:49.825Z,7.77
2018-09-13T07:14:18.011Z,7.73
2018-09-13T07:16:46.324Z,8.57
2018-09-13T07:19:14.524Z,8.17
2018-09-13T07:21:42.707Z,8.23
2018-09-13T07:24:10.898Z,7.83
2018-09-13T07:26:39.087Z,7.60
2018-09-13T07:29:07.352Z,8.07
2018-09-13T07:34:32.519Z,8.60
2018-09-13T07:37:00.803Z,8.20
2018-09-13T07:39:29.109Z,9.60
2018-09-13T07:41:57.511Z,9.27
2018-09-13T07:44:25.823Z,9.33
2018-09-13T07:46:54.153Z,9.30
2018-09-13T07:49:22.422Z,9.43
2018-09-13T07:51:50.732Z,8.93
2018-09-13T07:54:18.981Z,8.70
2018-09-13T07:56:47.236Z,8.40
2018-09-13T07:59:15.508Z,8.10
2018-09-13T08:01:43.763Z,7.57
2018-09-13T08:04:12.020Z,8.13
2018-09-13T08:06:40.282Z,7.80
2018-09-13T08:09:09.475Z,7.63
2018-09-13T08:11:37.797Z,7.43
2018-09-13T08:14:06.081Z,7.73
2018-09-13T08:16:34.329Z,7.33
2018-09-13T08:19:02.747Z,7.33
2018-09-13T08:21:31.026Z,7.13
2018-09-13T08:23:59.612Z,7.33
2018-09-13T08:26:27.866Z,6.83
2018-09-13T08:28:56.112Z,7.03
2018-09-13T08:31:24.365Z,6.80
2018-09-13T08:33:52.750Z,6.30
2018-09-13T08:36:21.025Z,6.13
2018-09-13T08:38:49.326Z,5.20
2018-09-13T08:41:17.632Z,5.77
2018-09-13T08:43:45.880Z,5.37
2018-09-13T08:46:14.101Z,5.40
2018-09-13T08:48:42.460Z,5.63
2018-09-13T08:51:10.693Z,5.00
2018-09-13T08:53:38.918Z,5.83
2018-09-13T08:56:07.156Z,5.90
2018-09-13T08:58:35.380Z,5.53
2018-09-13T09:01:03.648Z,5.60
2018-09-13T09:03:31.896Z,6.90
2018-09-13T09:06:00.152Z,5.90
2018-09-13T09:08:28.422Z,5.30
2018-09-13T09:10:56.719Z,4.70
2018-09-13T09:13:25.024Z,4.90
2018-09-13T09:15:53.239Z,5.90
2018-09-13T09:18:21.487Z,5.30
2018-09-13T09:20:49.756Z,5.17
2018-09-13T09:23:17.985Z,6.27
2018-09-13T09:25:46.321Z,5.23
2018-09-13T09:28:14.563Z,5.07
2018-09-13T09:30:42.800Z,5.33
2018-09-13T09:33:11.052Z,5.80
2018-09-13T09:35:39.278Z,5.87
2018-09-13T09:38:07.632Z,6.03
2018-09-13T09:40:35.945Z,5.40
2018-09-13T09:43:04.281Z,5.90
2018-09-13T09:45:32.565Z,5.70
2018-09-13T09:48:00.812Z,5.90
2018-09-13T09:50:29.109Z,5.43
2018-09-13T09:52:57.344Z,5.67
2018-09-13T09:55:25.896Z,5.97
2018-09-13T09:57:54.192Z,6.00
2018-09-13T10:00:26.766Z,5.63
2018-09-13T10:02:55.026Z,5.53
2018-09-13T10:05:23.288Z,5.70
2018-09-13T10:07:51.604Z,5.40
2018-09-13T10:10:19.846Z,6.50
2018-09-13T10:12:48.123Z,5.40
2018-09-13T10:15:21.772Z,5.77
2018-09-13T10:17:55.315Z,6.03
2018-09-13T10:20:28.809Z,5.50
2018-09-13T10:23:02.714Z,6.47
2018-09-13T10:25:36.221Z,5.90
2018-09-13T10:28:09.967Z,5.97
2018-09-13T10:30:43.611Z,5.43
2018-09-13T10:33:17.234Z,5.60
2018-09-13T10:35:51.042Z,6.03
2018-09-13T10:38:24.787Z,5.37
2018-09-13T10:40:58.601Z,6.17
2018-09-13T10:43:32.168Z,5.23
2018-09-13T10:46:05.851Z,4.77
2018-09-13T10:48:34.116Z,5.10
2018-09-13T10:51:07.763Z,5.80
2018-09-13T10:53:39.482Z,4.97
2018-09-13T10:56:07.832Z,5.00
2018-09-13T10:58:36.094Z,5.30
2018-09-13T11:01:04.335Z,4.60
2018-09-13T11:03:32.651Z,5.13
2018-09-13T11:06:00.890Z,4.57
2018-09-13T11:08:29.155Z,5.00
2018-09-13T11:10:57.707Z,5.07
2018-09-13T11:13:28.855Z,5.17
2018-09-13T11:15:57.120Z,4.67
2018-09-13T11:18:25.408Z,4.27
2018-09-13T11:20:53.703Z,4.43
2018-09-13T11:23:21.940Z,4.10
2018-09-13T11:25:50.207Z,3.97
2018-09-13T11:28:18.526Z,3.83
2018-09-13T11:30:51.075Z,4.37
2018-09-13T11:33:19.376Z,4.37
2018-09-13T11:35:47.726Z,3.50
2018-09-13T11:38:15.961Z,4.17
2018-09-13T11:40:44.427Z,4.23
2018-09-13T11:43:12.546Z,3.70
2018-09-13T11:45:40.840Z,3.37
2018-09-13T11:48:09.119Z,3.40
2018-09-13T11:50:37.461Z,3.80
2018-09-13T11:53:05.756Z,3.83
2018-09-13T11:55:37.871Z,3.87
2018-09-13T11:58:06.271Z,3.30
2018-09-13T12:00:34.528Z,3.40
2018-09-13T12:03:02.777Z,3.90
2018-09-13T12:05:31.032Z,3.77
2018-09-13T12:07:59.655Z,3.83
2018-09-13T12:10:27.943Z,3.80
2018-09-13T12:12:56.284Z,3.73
2018-09-13T12:15:24.538Z,3.70
2018-09-13T12:17:52.796Z,3.13
2018-09-13T12:20:21.053Z,3.47
2018-09-13T12:22:49.386Z,3.37
2018-09-13T12:25:18.309Z,3.50
2018-09-13T12:27:46.588Z,3.53
2018-09-13T12:30:14.865Z,3.10
2018-09-13T12:32:43.204Z,3.30
2018-09-13T12:35:11.519Z,3.27
2018-09-13T12:37:39.828Z,3.07
2018-09-13T12:40:08.784Z,2.73
2018-09-13T12:42:37.058Z,3.43
2018-09-13T12:45:05.536Z,3.23
2018-09-13T12:47:33.831Z,3.27
2018-09-13T12:50:02.135Z,3.47
2018-09-13T12:52:30.363Z,2.97
2018-09-13T12:54:58.715Z,3.00
2018-09-13T12:57:27.000Z,3.30
2018-09-13T12:59:55.310Z,3.50
2018-09-13T13:02:23.649Z,3.37
2018-09-13T13:04:52.004Z,3.10
2018-09-13T13:07:24.268Z,2.93
2018-09-13T13:09:53.337Z,3.50
2018-09-13T13:12:21.631Z,3.00
2018-09-13T13:14:49.915Z,4.27
2018-09-13T13:17:18.171Z,2.90
2018-09-13T13:19:46.417Z,3.00
2018-09-13T13:22:14.664Z,3.37
2018-09-13T13:24:43.008Z,3.37
2018-09-13T13:27:11.268Z,3.37
2018-09-13T13:29:39.517Z,3.57
2018-09-13T13:32:07.764Z,3.57
2018-09-13T13:34:36.057Z,2.80
2018-09-13T13:37:04.458Z,3.23
2018-09-13T13:39:32.709Z,2.77
2018-09-13T13:42:02.450Z,3.20
2018-09-13T13:44:30.716Z,3.17
2018-09-13T13:46:58.962Z,3.90
2018-09-13T13:49:27.316Z,3.57
2018-09-13T13:51:55.493Z,3.70
2018-09-13T13:54:23.748Z,3.67
2018-09-13T13:56:52.047Z,3.10
2018-09-13T13:59:20.302Z,3.23
2018-09-13T14:01:48.574Z,3.07
2018-09-13T14:04:16.879Z,3.00
2018-09-13T14:06:45.128Z,3.70
2018-09-13T14:09:13.876Z,3.23
2018-09-13T14:11:42.151Z,3.27
2018-09-13T14:14:10.418Z,3.40
2018-09-13T14:16:38.935Z,3.47
2018-09-13T14:19:07.226Z,3.60
2018-09-13T14:21:35.491Z,3.43
2018-09-13T14:24:03.769Z,3.43
2018-09-13T14:26:32.115Z,3.27
2018-09-13T14:29:00.396Z,3.10
2018-09-13T14:31:28.722Z,3.57
2018-09-13T14:33:56.986Z,3.20
2018-09-13T14:36:25.276Z,3.57
2018-09-13T14:38:53.563Z,3.20
2018-09-13T14:41:21.838Z,3.30
2018-09-13T14:43:50.094Z,3.40
2018-09-13T14:46:18.413Z,3.73
2018-09-13T14:48:46.700Z,3.67
2018-09-13T14:51:15.043Z,3.40
2018-09-13T14:53:43.386Z,3.50
2018-09-13T14:56:18.192Z,3.30
2018-09-13T14:58:46.398Z,3.47
2018-09-13T15:01:14.707Z,3.60
2018-09-13T15:03:43.035Z,3.33
2018-09-13T15:06:11.368Z,3.53
2018-09-13T15:08:39.689Z,3.30
2018-09-13T15:11:07.927Z,3.70
2018-09-13T15:13:36.207Z,3.10
2018-09-13T15:16:04.491Z,3.47
2018-09-13T15:18:32.751Z,3.30
2018-09-13T15:21:01.048Z,3.80
2018-09-13T15:23:29.288Z,3.90
2018-09-13T15:25:57.532Z,3.63
2018-09-13T15:28:26.345Z,3.70
2018-09-13T15:30:54.667Z,3.73
2018-09-13T15:33:23.787Z,3.13
2018-09-13T15:35:52.037Z,3.70
2018-09-13T15:38:20.359Z,3.90
2018-09-13T15:40:48.619Z,3.60
2018-09-13T15:43:16.883Z,3.37
2018-09-13T15:45:45.169Z,4.07
2018-09-13T15:48:13.428Z,3.83
2018-09-13T15:50:41.691Z,3.80
2018-09-13T15:53:09.954Z,3.43
2018-09-13T15:55:39.206Z,3.60
2018-09-13T15:58:07.521Z,3.37
2018-09-13T16:00:35.798Z,3.67
2018-09-13T16:03:04.052Z,3.80
2018-09-13T16:05:32.322Z,3.60
2018-09-13T16:08:00.564Z,3.30
2018-09-13T16:10:29.225Z,4.07
2018-09-13T16:12:57.598Z,3.50
2018-09-13T16:15:25.830Z,3.57
2018-09-13T16:17:54.242Z,3.53
2018-09-13T16:20:22.526Z,3.60
2018-09-13T16:22:50.926Z,3.40
2018-09-13T16:25:19.205Z,3.37
2018-09-13T16:27:47.460Z,2.90
2018-09-13T16:30:15.814Z,3.50
2018-09-13T16:32:44.190Z,3.40
2018-09-13T16:35:12.597Z,3.20
2018-09-13T16:37:46.238Z,3.27
2018-09-13T16:42:25.747Z,3.20
2018-09-13T16:44:55.599Z,6.73
2018-09-13T16:47:30.469Z,5.90
2018-09-13T16:50:06.220Z,4.07
2018-09-13T16:52:34.483Z,3.50
2018-09-13T16:55:02.768Z,2.83
2018-09-13T16:57:31.108Z,3.07
2018-09-13T16:59:59.363Z,3.43
2018-09-13T17:02:27.632Z,3.63
2018-09-13T17:04:55.893Z,5.00
2018-09-13T17:07:24.158Z,4.90
2018-09-13T17:09:52.461Z,3.63
2018-09-13T17:12:20.739Z,3.77
2018-09-13T17:14:49.072Z,2.63
2018-09-13T17:17:17.320Z,2.90
2018-09-13T17:19:45.588Z,2.97
2018-09-13T17:22:13.888Z,3.17
2018-09-13T17:24:42.192Z,3.13
2018-09-13T17:27:10.411Z,3.53
2018-09-13T17:29:38.648Z,5.83
2018-09-13T17:32:06.887Z,3.63
2018-09-13T17:34:35.154Z,3.13
2018-09-13T17:37:03.414Z,2.93
2018-09-13T17:39:31.664Z,3.07
2018-09-13T17:41:59.998Z,2.97
2018-09-13T17:44:28.240Z,2.57
2018-09-13T17:46:56.670Z,3.67
2018-09-13T17:49:24.922Z,2.77
2018-09-13T17:51:57.314Z,2.93
2018-09-13T17:54:25.596Z,3.40
2018-09-13T17:56:53.844Z,3.10
2018-09-13T17:59:22.088Z,3.03
2018-09-13T18:01:50.743Z,2.87
2018-09-13T18:04:19.036Z,3.00
2018-09-13T18:06:47.287Z,3.10
2018-09-13T18:09:15.536Z,3.83
2018-09-13T18:11:43.869Z,3.10
2018-09-13T18:14:12.105Z,3.17
2018-09-13T18:16:40.416Z,3.07
2018-09-13T18:19:08.666Z,3.70
2018-09-13T18:21:36.944Z,2.63
2018-09-13T18:24:05.297Z,3.40
2018-09-13T18:26:33.591Z,3.27
2018-09-13T18:29:01.870Z,3.10
2018-09-13T18:31:30.177Z,3.00
2018-09-13T18:33:58.438Z,2.47
2018-09-13T18:36:26.764Z,3.50
2018-09-13T18:38:55.143Z,3.10
2018-09-13T18:41:23.636Z,2.83
2018-09-13T18:43:52.057Z,3.07
2018-09-13T18:46:20.409Z,3.60
2018-09-13T18:48:48.777Z,3.20
2018-09-13T18:51:17.263Z,2.90
2018-09-13T18:53:46.101Z,3.10
2018-09-13T18:56:14.669Z,3.03
2018-09-13T18:58:43.009Z,3.03
2018-09-13T19:01:11.470Z,2.60
2018-09-13T19:03:39.850Z,3.13
2018-09-13T19:06:08.449Z,2.73
2018-09-13T19:08:36.733Z,3.20
2018-09-13T19:11:05.130Z,2.83
2018-09-13T19:13:33.475Z,2.37
2018-09-13T19:16:01.795Z,2.60
2018-09-13T19:18:30.145Z,2.80
2018-09-13T19:20:58.431Z,2.60
2018-09-13T19:23:26.712Z,2.43
2018-09-13T19:25:54.972Z,2.43
2018-09-13T19:28:23.264Z,2.60
2018-09-13T19:30:51.546Z,2.20
2018-09-13T19:33:19.838Z,2.67
2018-09-13T19:35:48.098Z,3.03
2018-09-13T19:38:16.348Z,2.83
2018-09-13T19:40:44.592Z,2.90
2018-09-13T19:43:13.011Z,3.10
2018-09-13T19:45:41.354Z,3.27
2018-09-13T19:48:09.606Z,2.90
2018-09-13T19:50:37.916Z,2.93
2018-09-13T19:53:06.131Z,3.20
2018-09-13T19:55:34.484Z,2.70
2018-09-13T19:58:02.765Z,3.27
2018-09-13T20:00:31.024Z,3.30
2018-09-13T20:02:59.346Z,3.17
2018-09-13T20:05:27.610Z,3.03
2018-09-13T20:42:19.451Z,3.40
2018-09-13T20:44:47.757Z,3.43
2018-09-13T20:47:16.029Z,3.20
2018-09-13T20:49:44.940Z,3.67
2018-09-13T20:52:13.302Z,3.83
2018-09-13T20:54:41.603Z,4.23
2018-09-13T20:57:09.971Z,3.43
2018-09-13T20:59:38.243Z,3.90
2018-09-13T21:02:06.545Z,3.60
2018-09-13T21:04:34.825Z,3.83
2018-09-13T21:07:03.115Z,3.97
2018-09-13T21:09:31.415Z,4.07
2018-09-13T21:11:59.705Z,3.80
2018-09-13T21:14:27.976Z,3.97
2018-09-13T21:16:56.232Z,3.93
2018-09-13T21:19:24.511Z,3.57
2018-09-13T21:21:52.836Z,3.83
2018-09-13T21:24:21.108Z,3.63
2018-09-13T21:26:49.383Z,3.47
2018-09-13T21:29:17.612Z,3.73
2018-09-13T21:31:45.876Z,3.63
2018-09-13T21:34:14.145Z,3.90
2018-09-13T21:36:42.409Z,3.93
2018-09-13T21:39:11.096Z,3.93
2018-09-13T21:41:39.353Z,3.50
2018-09-13T21:44:07.726Z,3.83
2018-09-13T21:46:36.016Z,3.87
2018-09-13T21:49:04.327Z,3.43
2018-09-13T21:51:32.687Z,3.57
2018-09-13T21:54:00.944Z,4.13
2018-09-13T21:56:29.171Z,3.83
2018-09-13T21:58:57.512Z,3.77
2018-09-13T22:01:25.726Z,3.50
2018-09-13T22:03:53.991Z,4.13
2018-09-13T22:06:22.264Z,4.00
2018-09-13T22:08:50.541Z,3.90
2018-09-13T22:11:18.895Z,3.57
2018-09-13T22:13:47.252Z,3.40
2018-09-13T22:16:15.523Z,3.17
2018-09-13T22:18:43.798Z,3.90
2018-09-13T22:21:12.083Z,3.83
2018-09-13T22:23:40.388Z,3.40
2018-09-13T22:26:08.665Z,3.83
2018-09-13T22:28:36.933Z,3.70
2018-09-13T22:31:05.214Z,3.60
2018-09-13T22:33:33.513Z,3.77
2018-09-13T22:36:01.823Z,3.70
2018-09-13T22:38:30.093Z,3.40
2018-09-13T22:40:58.367Z,4.33
2018-09-13T22:43:30.914Z,4.87
2018-09-13T22:45:59.172Z,4.10
2018-09-13T22:48:27.445Z,3.70
2018-09-13T22:50:55.699Z,5.17
2018-09-13T22:53:24.060Z,4.00
2018-09-13T22:55:52.332Z,3.93
2018-09-13T22:58:20.610Z,4.07
2018-09-13T23:00:48.970Z,3.93
2018-09-13T23:03:17.249Z,4.60
2018-09-13T23:05:45.528Z,4.40
2018-09-13T23:08:13.793Z,4.20
2018-09-13T23:10:42.069Z,4.27
2018-09-13T23:13:10.370Z,4.27
2018-09-13T23:15:38.639Z,4.23
2018-09-13T23:18:06.891Z,4.10
2018-09-13T23:20:35.167Z,4.77
2018-09-13T23:23:03.441Z,4.23
2018-09-13T23:25:31.737Z,4.27
2018-09-13T23:27:59.997Z,4.27
2018-09-13T23:30:28.268Z,4.50
2018-09-13T23:32:56.534Z,3.90
2018-09-13T23:35:24.806Z,4.00
2018-09-13T23:37:53.104Z,4.87
2018-09-13T23:40:21.518Z,4.50
2018-09-13T23:42:49.734Z,4.50
2018-09-13T23:45:18.130Z,4.40
2018-09-13T23:47:46.448Z,4.50
2018-09-13T23:50:21.258Z,4.50
2018-09-13T23:52:49.510Z,4.37
2018-09-13T23:55:17.786Z,4.70
2018-09-13T23:57:46.034Z,4.97
